createdAt,value
2018-09-23T00:00:40.377Z,18.61
2018-09-23T00:03:09.139Z,18.74
2018-09-23T00:05:37.986Z,18.38
2018-09-23T00:08:07.175Z,18.29
2018-09-23T00:10:35.830Z,18.13
2018-09-23T00:13:04.808Z,18.14
2018-09-23T00:15:33.686Z,18.07
2018-09-23T00:18:02.440Z,18.35
2018-09-23T00:20:31.115Z,18.18
2018-09-23T00:23:00.813Z,18.13
2018-09-23T00:25:29.552Z,17.83
2018-09-23T00:27:58.367Z,17.96
2018-09-23T00:30:27.538Z,17.74
2018-09-23T00:32:56.456Z,17.75
2018-09-23T00:35:25.452Z,17.92
2018-09-23T00:37:54.557Z,17.96
2018-09-23T00:40:23.538Z,17.95
2018-09-23T00:42:52.636Z,17.86
2018-09-23T00:45:21.331Z,17.65
2018-09-23T00:47:50.258Z,17.56
2018-09-23T00:50:19.051Z,17.61
2018-09-23T00:52:47.698Z,17.44
2018-09-23T00:55:16.413Z,17.49
2018-09-23T00:57:45.575Z,17.36
2018-09-23T01:00:14.393Z,17.14
2018-09-23T01:02:43.204Z,17.36
2018-09-23T01:05:11.900Z,17.42
2018-09-23T01:07:40.803Z,17.53
2018-09-23T01:10:09.860Z,17.36
2018-09-23T01:12:38.815Z,17.26
2018-09-23T01:15:07.658Z,17.08
2018-09-23T01:17:36.574Z,17.00
2018-09-23T01:20:05.553Z,16.95
2018-09-23T01:22:34.339Z,16.82
2018-09-23T01:25:03.186Z,16.78
2018-09-23T01:27:31.966Z,16.73
2018-09-23T01:30:00.794Z,16.72
2018-09-23T01:32:30.097Z,16.59
2018-09-23T01:34:58.663Z,16.63
2018-09-23T01:37:27.810Z,16.72
2018-09-23T01:39:56.767Z,16.86
2018-09-23T01:42:25.970Z,16.72
2018-09-23T01:44:55.062Z,16.69
2018-09-23T01:47:24.263Z,16.60
2018-09-23T01:49:52.959Z,16.60
2018-09-23T01:52:21.766Z,16.58
2018-09-23T01:54:50.610Z,16.59
2018-09-23T01:57:19.642Z,16.52
2018-09-23T01:59:48.803Z,16.55
2018-09-23T02:02:17.465Z,16.52
2018-09-23T02:04:46.763Z,16.51
2018-09-23T02:07:15.631Z,16.51
2018-09-23T02:09:44.456Z,16.66
2018-09-23T02:12:13.218Z,16.61
2018-09-23T02:14:42.250Z,16.72
2018-09-23T02:17:11.055Z,16.64
2018-09-23T02:19:40.172Z,16.81
2018-09-23T02:22:08.813Z,16.95
2018-09-23T02:24:37.639Z,16.98
2018-09-23T02:27:06.782Z,17.02
2018-09-23T02:29:35.672Z,17.06
2018-09-23T02:32:04.621Z,17.12
2018-09-23T02:34:33.622Z,17.12
2018-09-23T02:37:02.567Z,17.21
2018-09-23T02:39:31.381Z,17.24
2018-09-23T02:42:00.395Z,17.18
2018-09-23T02:44:29.349Z,17.01
2018-09-23T02:46:58.194Z,16.98
2018-09-23T02:49:27.031Z,16.83
2018-09-23T02:51:55.959Z,16.70
2018-09-23T02:54:24.715Z,16.86
2018-09-23T02:56:53.858Z,16.79
2018-09-23T02:59:22.647Z,17.10
2018-09-23T03:01:51.652Z,16.84
2018-09-23T03:04:20.589Z,16.80
2018-09-23T03:06:49.182Z,17.02
2018-09-23T03:09:18.407Z,16.72
2018-09-23T03:11:47.157Z,16.95
2018-09-23T03:14:16.064Z,16.98
2018-09-23T03:16:44.977Z,16.94
2018-09-23T03:19:13.990Z,16.98
2018-09-23T03:21:42.619Z,16.92
2018-09-23T03:24:11.583Z,16.93
2018-09-23T03:26:40.223Z,16.83
2018-09-23T03:29:09.043Z,16.83
2018-09-23T03:31:38.023Z,16.79
2018-09-23T03:34:06.981Z,16.76
2018-09-23T03:36:35.902Z,16.58
2018-09-23T03:39:05.862Z,16.32
2018-09-23T03:41:35.078Z,16.19
2018-09-23T03:44:04.138Z,16.35
2018-09-23T03:46:33.015Z,16.42
2018-09-23T03:49:01.989Z,16.23
2018-09-23T03:51:30.813Z,16.33
2018-09-23T03:53:59.582Z,16.21
2018-09-23T03:56:28.699Z,16.25
2018-09-23T03:58:57.876Z,16.39
2018-09-23T04:01:26.852Z,16.40
2018-09-23T04:03:55.594Z,16.25
2018-09-23T04:06:24.482Z,16.29
2018-09-23T04:08:53.494Z,16.32
2018-09-23T04:11:22.337Z,16.54
2018-09-23T04:13:51.171Z,16.48
2018-09-23T04:16:20.066Z,16.45
2018-09-23T04:18:48.806Z,16.40
2018-09-23T04:21:17.572Z,16.37
2018-09-23T04:23:46.482Z,16.35
2018-09-23T04:26:15.502Z,16.33
2018-09-23T04:28:44.249Z,16.27
2018-09-23T04:31:13.059Z,16.11
2018-09-23T04:33:41.784Z,16.15
2018-09-23T04:36:10.767Z,16.15
2018-09-23T04:38:39.775Z,16.21
2018-09-23T04:41:08.767Z,16.33
2018-09-23T04:43:37.373Z,16.37
2018-09-23T04:46:06.486Z,16.11
2018-09-23T04:48:35.168Z,16.29
2018-09-23T04:51:03.820Z,16.26
2018-09-23T04:53:32.719Z,16.17
2018-09-23T04:56:01.920Z,16.25
2018-09-23T04:58:30.909Z,16.26
2018-09-23T05:00:59.838Z,16.30
2018-09-23T05:03:28.821Z,16.35
2018-09-23T05:05:57.919Z,16.55
2018-09-23T05:08:26.559Z,16.59
2018-09-23T05:10:55.309Z,16.68
2018-09-23T05:13:24.233Z,16.68
2018-09-23T05:15:53.176Z,16.68
2018-09-23T05:18:21.974Z,16.86
2018-09-23T05:20:50.963Z,16.96
2018-09-23T05:23:19.983Z,17.04
2018-09-23T05:25:48.931Z,17.10
2018-09-23T05:28:17.922Z,17.09
2018-09-23T05:30:46.888Z,17.28
2018-09-23T05:33:15.574Z,17.46
2018-09-23T05:35:44.765Z,17.61
2018-09-23T05:38:13.546Z,17.61
2018-09-23T05:40:42.799Z,17.70
2018-09-23T05:43:11.842Z,17.77
2018-09-23T05:45:40.607Z,17.78
2018-09-23T05:48:09.711Z,17.90
2018-09-23T05:50:38.823Z,17.98
2018-09-23T05:53:07.567Z,18.07
2018-09-23T05:55:36.964Z,18.12
2018-09-23T05:58:06.123Z,18.12
2018-09-23T06:00:40.268Z,18.23
2018-09-23T06:03:09.167Z,18.33
2018-09-23T06:05:38.044Z,18.46
2018-09-23T06:08:07.127Z,18.60
2018-09-23T06:10:36.087Z,18.56
2018-09-23T06:13:04.804Z,18.85
2018-09-23T06:15:33.659Z,18.92
2018-09-23T06:18:02.410Z,18.87
2018-09-23T06:20:31.327Z,19.04
2018-09-23T06:23:00.420Z,19.26
2018-09-23T06:25:29.228Z,19.28
2018-09-23T06:27:58.121Z,19.46
2018-09-23T06:30:26.756Z,19.49
2018-09-23T06:32:55.563Z,19.51
2018-09-23T06:35:24.395Z,19.46
2018-09-23T06:37:53.329Z,19.51
2018-09-23T06:40:22.017Z,19.67
2018-09-23T06:42:50.608Z,19.62
2018-09-23T06:45:19.455Z,19.75
2018-09-23T06:47:48.531Z,19.96
2018-09-23T06:50:17.419Z,19.97
2018-09-23T06:52:46.551Z,19.88
2018-09-23T06:55:15.676Z,19.84
2018-09-23T06:57:50.034Z,19.51
2018-09-23T07:00:18.938Z,19.86
2018-09-23T07:02:47.888Z,20.16
2018-09-23T07:05:16.784Z,20.15
2018-09-23T07:07:45.930Z,20.18
2018-09-23T07:10:14.731Z,20.15
2018-09-23T07:12:43.410Z,20.07
2018-09-23T07:15:12.094Z,20.19
2018-09-23T07:17:41.125Z,20.59
2018-09-23T07:20:09.940Z,20.64
2018-09-23T07:22:39.092Z,20.70
2018-09-23T07:25:08.057Z,20.97
2018-09-23T07:27:37.079Z,21.10
2018-09-23T07:30:06.369Z,21.03
2018-09-23T07:32:35.095Z,21.20
2018-09-23T07:35:04.039Z,21.35
2018-09-23T07:37:32.963Z,21.53
2018-09-23T07:40:01.724Z,21.40
2018-09-23T07:42:30.313Z,21.48
2018-09-23T07:44:59.018Z,21.47
2018-09-23T07:47:27.820Z,21.98
2018-09-23T07:49:56.731Z,22.12
2018-09-23T07:52:25.494Z,21.76
2018-09-23T07:54:54.491Z,21.71
2018-09-23T07:57:23.613Z,21.92
2018-09-23T07:59:52.812Z,21.98
2018-09-23T08:02:21.810Z,21.84
2018-09-23T08:04:50.798Z,21.99
2018-09-23T08:07:20.031Z,22.47
2018-09-23T08:09:48.876Z,22.56
2018-09-23T08:12:17.477Z,22.72
2018-09-23T08:14:46.691Z,22.94
2018-09-23T08:17:15.127Z,23.11
2018-09-23T08:19:44.259Z,22.81
2018-09-23T08:22:13.071Z,23.32
2018-09-23T08:24:41.970Z,23.27
2018-09-23T08:27:10.925Z,22.59
2018-09-23T08:29:39.853Z,22.76
2018-09-23T08:32:09.062Z,22.72
2018-09-23T08:34:37.904Z,22.85
2018-09-23T08:37:06.906Z,22.95
2018-09-23T08:39:35.995Z,23.46
2018-09-23T08:42:04.690Z,23.45
2018-09-23T08:44:33.679Z,23.51
2018-09-23T08:47:02.810Z,23.47
2018-09-23T08:49:31.921Z,23.83
2018-09-23T08:52:00.897Z,24.29
2018-09-23T08:54:29.903Z,24.08
2018-09-23T08:56:58.571Z,23.96
2018-09-23T08:59:27.380Z,24.30
2018-09-23T09:01:56.299Z,24.26
2018-09-23T09:04:25.369Z,24.35
2018-09-23T09:06:54.590Z,23.89
2018-09-23T09:09:23.428Z,23.67
2018-09-23T09:11:52.167Z,24.23
2018-09-23T09:14:21.276Z,24.49
2018-09-23T09:16:50.575Z,24.45
2018-09-23T09:19:19.428Z,24.15
2018-09-23T09:21:48.329Z,24.76
2018-09-23T09:24:17.090Z,24.63
2018-09-23T09:26:46.132Z,25.08
2018-09-23T09:29:15.161Z,25.05
2018-09-23T09:31:44.022Z,25.22
2018-09-23T09:34:13.128Z,25.98
2018-09-23T09:36:41.866Z,26.23
2018-09-23T09:39:11.525Z,26.20
2018-09-23T09:41:40.971Z,26.68
2018-09-23T09:44:10.183Z,26.81
2018-09-23T09:46:39.049Z,27.17
2018-09-23T09:49:07.969Z,27.63
2018-09-23T09:51:36.725Z,27.92
2018-09-23T09:54:05.751Z,26.92
2018-09-23T09:56:34.732Z,27.86
2018-09-23T09:59:03.648Z,27.89
2018-09-23T10:01:32.604Z,28.12
2018-09-23T10:04:01.701Z,28.34
2018-09-23T10:06:30.509Z,28.28
2018-09-23T10:08:59.279Z,28.87
2018-09-23T10:11:28.210Z,29.18
2018-09-23T10:13:57.002Z,29.91
2018-09-23T10:16:25.813Z,29.60
2018-09-23T10:18:54.746Z,29.68
2018-09-23T10:21:24.067Z,29.93
2018-09-23T10:23:52.871Z,30.39
2018-09-23T10:26:21.860Z,30.80
2018-09-23T10:28:50.507Z,30.80
2018-09-23T10:31:19.355Z,31.27
2018-09-23T10:33:48.077Z,31.96
2018-09-23T10:36:17.213Z,32.09
2018-09-23T10:38:45.977Z,31.45
2018-09-23T10:41:14.725Z,31.63
2018-09-23T10:43:43.599Z,31.78
2018-09-23T10:46:12.486Z,32.55
2018-09-23T10:48:41.222Z,32.20
2018-09-23T10:51:10.316Z,32.34
2018-09-23T10:53:39.305Z,32.33
2018-09-23T10:56:08.373Z,32.00
2018-09-23T10:58:37.285Z,32.31
2018-09-23T11:01:06.510Z,31.29
2018-09-23T11:03:35.509Z,31.06
2018-09-23T11:06:04.204Z,32.06
2018-09-23T11:08:32.987Z,32.17
2018-09-23T11:11:01.666Z,32.70
2018-09-23T11:13:30.607Z,32.43
2018-09-23T11:15:59.348Z,32.29
2018-09-23T11:18:28.275Z,32.62
2018-09-23T11:20:57.002Z,32.74
2018-09-23T11:23:26.004Z,32.77
2018-09-23T11:25:54.966Z,32.50
2018-09-23T11:28:23.851Z,32.87
2018-09-23T11:30:52.787Z,33.15
2018-09-23T11:33:21.689Z,33.44
2018-09-23T11:35:50.404Z,32.96
2018-09-23T11:38:19.038Z,33.06
2018-09-23T11:40:47.679Z,32.89
2018-09-23T11:43:16.546Z,32.48
2018-09-23T11:45:45.622Z,32.66
2018-09-23T11:48:14.454Z,32.60
2018-09-23T11:50:44.324Z,32.61
2018-09-23T11:53:13.204Z,32.82
2018-09-23T11:55:42.342Z,32.91
2018-09-23T11:58:11.689Z,32.99
2018-09-23T12:00:40.596Z,33.05
2018-09-23T12:03:09.619Z,33.14
2018-09-23T12:05:38.486Z,33.23
2018-09-23T12:08:07.608Z,33.31
2018-09-23T12:10:36.523Z,33.25
2018-09-23T12:13:05.292Z,33.18
2018-09-23T12:15:34.058Z,33.89
2018-09-23T12:18:02.970Z,33.89
2018-09-23T12:20:31.633Z,33.87
2018-09-23T12:23:00.695Z,34.05
2018-09-23T12:25:29.825Z,34.95
2018-09-23T12:27:58.472Z,35.27
2018-09-23T12:30:27.358Z,35.31
2018-09-23T12:32:56.231Z,35.19
2018-09-23T12:35:25.047Z,35.38
2018-09-23T12:37:53.634Z,35.17
2018-09-23T12:40:22.362Z,35.52
2018-09-23T12:42:51.272Z,35.94
2018-09-23T12:45:20.303Z,36.04
2018-09-23T12:47:49.461Z,36.51
2018-09-23T12:50:18.816Z,37.23
2018-09-23T12:52:47.927Z,37.57
2018-09-23T12:55:17.005Z,37.93
2018-09-23T12:57:46.019Z,37.58
2018-09-23T13:00:15.007Z,38.04
2018-09-23T13:02:43.739Z,37.73
2018-09-23T13:05:12.667Z,38.02
2018-09-23T13:07:41.399Z,37.42
2018-09-23T13:10:10.092Z,37.77
2018-09-23T13:12:38.932Z,37.76
2018-09-23T13:15:08.247Z,37.29
2018-09-23T13:17:37.339Z,37.57
2018-09-23T13:20:06.853Z,37.69
2018-09-23T13:22:35.501Z,37.54
2018-09-23T13:25:04.785Z,37.47
2018-09-23T13:27:33.551Z,37.40
2018-09-23T13:30:02.790Z,37.81
2018-09-23T13:32:31.775Z,37.51
2018-09-23T13:35:00.477Z,37.43
2018-09-23T13:37:29.152Z,37.17
2018-09-23T13:39:57.962Z,36.95
2018-09-23T13:42:26.917Z,37.11
2018-09-23T13:44:55.783Z,35.37
2018-09-23T13:47:24.717Z,35.89
2018-09-23T13:49:53.965Z,36.05
2018-09-23T13:52:23.104Z,34.77
2018-09-23T13:54:52.267Z,34.21
2018-09-23T13:57:21.193Z,35.03
2018-09-23T13:59:50.299Z,34.86
2018-09-23T14:02:19.054Z,34.92
2018-09-23T14:04:47.683Z,35.27
2018-09-23T14:07:16.291Z,34.93
2018-09-23T14:09:45.540Z,35.28
2018-09-23T14:12:14.519Z,34.96
2018-09-23T14:14:43.181Z,34.97
2018-09-23T14:17:12.230Z,35.03
2018-09-23T14:19:41.329Z,34.55
2018-09-23T14:22:10.379Z,34.22
2018-09-23T14:24:39.507Z,34.43
2018-09-23T14:27:08.383Z,33.88
2018-09-23T14:29:37.302Z,34.10
2018-09-23T14:32:06.088Z,34.61
2018-09-23T14:34:35.156Z,34.68
2018-09-23T14:37:03.924Z,34.66
2018-09-23T14:39:33.074Z,34.63
2018-09-23T14:42:01.812Z,34.63
2018-09-23T14:44:30.859Z,34.25
2018-09-23T14:46:59.843Z,34.10
2018-09-23T14:49:28.966Z,33.61
2018-09-23T14:51:57.619Z,33.70
2018-09-23T14:54:26.618Z,33.55
2018-09-23T14:56:55.290Z,33.64
2018-09-23T14:59:24.287Z,33.40
2018-09-23T15:01:53.483Z,32.97
2018-09-23T15:04:22.230Z,32.59
2018-09-23T15:06:50.970Z,32.76
2018-09-23T15:09:19.892Z,32.60
2018-09-23T15:11:49.166Z,31.88
2018-09-23T15:14:18.079Z,32.15
2018-09-23T15:16:47.076Z,32.45
2018-09-23T15:19:16.046Z,32.64
2018-09-23T15:21:45.281Z,32.62
2018-09-23T15:24:14.091Z,32.67
2018-09-23T15:26:43.073Z,32.47
2018-09-23T15:29:12.165Z,32.51
2018-09-23T15:31:40.930Z,31.95
2018-09-23T15:34:10.103Z,31.76
2018-09-23T15:36:39.020Z,31.60
2018-09-23T15:39:08.934Z,31.93
2018-09-23T15:41:38.250Z,31.81
2018-09-23T15:44:07.629Z,31.47
2018-09-23T15:46:36.469Z,31.20
2018-09-23T15:49:05.474Z,31.21
2018-09-23T15:51:34.342Z,30.59
2018-09-23T15:54:03.258Z,29.98
2018-09-23T15:56:31.958Z,30.22
2018-09-23T15:59:02.301Z,29.36
2018-09-23T16:01:31.107Z,29.43
2018-09-23T16:03:59.820Z,29.41
2018-09-23T16:06:28.786Z,29.03
2018-09-23T16:08:57.712Z,28.91
2018-09-23T16:11:27.083Z,28.96
2018-09-23T16:13:56.005Z,28.62
2018-09-23T16:16:24.995Z,28.23
2018-09-23T16:18:53.927Z,27.88
2018-09-23T16:21:23.053Z,27.51
2018-09-23T16:23:52.243Z,27.43
2018-09-23T16:26:21.265Z,27.02
2018-09-23T16:28:50.106Z,26.69
2018-09-23T16:31:18.895Z,26.49
2018-09-23T16:33:47.653Z,26.20
2018-09-23T16:36:16.424Z,26.04
2018-09-23T16:38:45.434Z,25.62
2018-09-23T16:41:14.104Z,25.60
2018-09-23T16:43:43.302Z,25.47
2018-09-23T16:46:12.391Z,25.39
2018-09-23T16:48:41.461Z,25.16
2018-09-23T16:51:10.299Z,24.80
2018-09-23T16:53:39.234Z,24.57
2018-09-23T16:56:08.299Z,24.28
2018-09-23T16:58:37.026Z,24.11
2018-09-23T17:01:05.701Z,23.89
2018-09-23T17:03:34.345Z,23.96
2018-09-23T17:06:03.354Z,23.91
2018-09-23T17:08:32.197Z,23.72
2018-09-23T17:11:01.133Z,23.60
2018-09-23T17:13:30.099Z,23.60
2018-09-23T17:15:58.993Z,23.68
2018-09-23T17:18:27.814Z,23.26
2018-09-23T17:20:57.119Z,23.26
2018-09-23T17:23:25.882Z,23.20
2018-09-23T17:25:54.913Z,23.17
2018-09-23T17:28:23.707Z,23.09
2018-09-23T17:30:52.360Z,23.02
2018-09-23T17:33:21.302Z,23.18
2018-09-23T17:35:50.213Z,22.90
2018-09-23T17:38:18.935Z,22.82
2018-09-23T17:40:47.913Z,23.05
2018-09-23T17:43:16.888Z,23.43
2018-09-23T17:45:45.820Z,23.50
2018-09-23T17:48:14.894Z,23.26
2018-09-23T17:50:43.762Z,22.95
2018-09-23T17:53:12.591Z,22.77
2018-09-23T17:55:41.381Z,23.07
2018-09-23T17:58:10.059Z,22.98
2018-09-23T18:00:42.942Z,23.13
2018-09-23T18:03:12.740Z,22.96
2018-09-23T18:05:41.687Z,22.45
2018-09-23T18:08:11.064Z,22.44
2018-09-23T18:10:39.837Z,22.43
2018-09-23T18:13:08.881Z,22.24
2018-09-23T18:15:37.868Z,22.24
2018-09-23T18:18:06.830Z,22.37
2018-09-23T18:20:35.825Z,22.24
2018-09-23T18:23:04.742Z,22.01
2018-09-23T18:25:33.667Z,21.56
2018-09-23T18:28:02.317Z,21.74
2018-09-23T18:30:31.144Z,21.44
2018-09-23T18:33:00.551Z,21.64
2018-09-23T18:35:29.582Z,21.46
2018-09-23T18:37:58.565Z,21.18
2018-09-23T18:40:27.552Z,21.17
2018-09-23T18:42:56.432Z,21.19
2018-09-23T18:45:25.490Z,20.95
2018-09-23T18:47:54.223Z,20.69
2018-09-23T18:50:23.043Z,20.97
2018-09-23T18:52:57.423Z,20.94
2018-09-23T18:55:31.209Z,20.64
2018-09-23T18:58:00.297Z,20.64
2018-09-23T19:00:29.069Z,20.65
2018-09-23T19:02:58.316Z,20.67
2018-09-23T19:05:27.030Z,20.50
2018-09-23T19:07:55.939Z,20.59
2018-09-23T19:10:24.907Z,20.50
2018-09-23T19:12:59.020Z,20.32
2018-09-23T19:15:27.743Z,20.17
2018-09-23T19:17:56.691Z,20.24
2018-09-23T19:20:26.062Z,20.14
2018-09-23T19:23:00.019Z,20.26
2018-09-23T19:25:29.097Z,20.60
2018-09-23T19:27:57.796Z,20.95
2018-09-23T19:30:26.518Z,20.52
2018-09-23T19:32:55.405Z,20.38
2018-09-23T19:35:24.483Z,20.11
2018-09-23T19:37:53.690Z,20.10
2018-09-23T19:40:22.558Z,20.05
2018-09-23T19:42:51.595Z,20.10
2018-09-23T19:45:20.699Z,20.10
2018-09-23T19:47:49.791Z,20.22
2018-09-23T19:50:18.462Z,20.27
2018-09-23T19:52:47.443Z,20.37
2018-09-23T19:55:16.226Z,20.20
2018-09-23T19:57:44.808Z,20.08
2018-09-23T20:00:13.672Z,19.87
2018-09-23T20:02:42.430Z,19.83
2018-09-23T20:05:11.474Z,19.68
2018-09-23T20:07:40.537Z,19.67
2018-09-23T20:10:09.514Z,19.67
2018-09-23T20:12:38.689Z,19.60
2018-09-23T20:15:12.767Z,19.43
2018-09-23T20:17:41.616Z,19.52
2018-09-23T20:20:10.757Z,19.67
2018-09-23T20:22:39.582Z,19.93
2018-09-23T20:25:08.319Z,19.58
2018-09-23T20:27:37.073Z,19.47
2018-09-23T20:30:06.348Z,19.41
2018-09-23T20:32:35.368Z,19.31
2018-09-23T20:35:05.281Z,19.14
2018-09-23T20:37:34.342Z,19.31
2018-09-23T20:40:03.460Z,19.40
2018-09-23T20:42:32.568Z,19.16
2018-09-23T20:45:02.079Z,19.06
2018-09-23T20:47:30.804Z,18.97
2018-09-23T20:49:59.928Z,19.08
2018-09-23T20:52:28.561Z,19.01
2018-09-23T20:54:57.300Z,18.92
2018-09-23T20:57:26.055Z,18.92
2018-09-23T20:59:54.973Z,19.23
2018-09-23T21:02:23.736Z,19.36
2018-09-23T21:04:52.683Z,19.40
2018-09-23T21:07:21.686Z,19.47
2018-09-23T21:09:50.448Z,19.33
2018-09-23T21:12:19.581Z,19.16
2018-09-23T21:14:48.331Z,19.14
2018-09-23T21:17:17.103Z,19.28
2018-09-23T21:19:46.015Z,19.44
2018-09-23T21:22:14.920Z,19.44
2018-09-23T21:24:43.569Z,19.49
2018-09-23T21:27:12.414Z,19.53
2018-09-23T21:29:41.165Z,19.48
2018-09-23T21:32:10.218Z,19.47
2018-09-23T21:34:39.362Z,19.41
2018-09-23T21:37:08.220Z,19.34
2018-09-23T21:39:37.341Z,18.99
2018-09-23T21:42:06.243Z,18.81
2018-09-23T21:44:35.103Z,18.97
2018-09-23T21:47:03.994Z,18.73
2018-09-23T21:49:32.907Z,18.51
2018-09-23T21:52:01.907Z,18.48
2018-09-23T21:54:30.571Z,18.43
2018-09-23T21:56:59.224Z,18.28
2018-09-23T21:59:28.139Z,18.25
2018-09-23T22:01:57.042Z,18.17
2018-09-23T22:04:26.150Z,18.02
2018-09-23T22:06:54.952Z,17.95
2018-09-23T22:09:24.002Z,18.21
2018-09-23T22:11:52.878Z,18.21
2018-09-23T22:14:21.831Z,18.42
2018-09-23T22:16:50.760Z,18.03
2018-09-23T22:19:19.716Z,18.16
2018-09-23T22:21:48.654Z,18.05
2018-09-23T22:24:17.440Z,18.00
2018-09-23T22:26:46.239Z,17.94
2018-09-23T22:29:15.183Z,18.06
2018-09-23T22:31:44.260Z,17.99
2018-09-23T22:34:13.148Z,18.32
2018-09-23T22:36:42.229Z,18.15
2018-09-23T22:39:11.030Z,18.07
2018-09-23T22:41:39.944Z,18.33
2018-09-23T22:44:08.575Z,18.19
2018-09-23T22:46:37.452Z,17.90
2018-09-23T22:49:06.570Z,18.17
2018-09-23T22:51:35.444Z,18.11
2018-09-23T22:54:04.154Z,17.99
2018-09-23T22:56:32.863Z,18.20
2018-09-23T22:59:01.606Z,18.10
2018-09-23T23:01:30.664Z,17.93
2018-09-23T23:03:59.618Z,18.00
2018-09-23T23:06:28.663Z,18.08
2018-09-23T23:08:57.639Z,18.00
2018-09-23T23:11:26.600Z,18.01
2018-09-23T23:13:55.449Z,18.30
2018-09-23T23:16:24.379Z,18.19
2018-09-23T23:18:53.077Z,17.92
2018-09-23T23:21:21.841Z,18.10
2018-09-23T23:23:50.476Z,18.25
2018-09-23T23:26:19.051Z,18.24
2018-09-23T23:28:47.910Z,18.09
2018-09-23T23:31:16.998Z,18.07
2018-09-23T23:33:45.983Z,17.92
2018-09-23T23:36:14.844Z,17.82
2018-09-23T23:38:43.575Z,17.78
2018-09-23T23:41:12.358Z,17.84
2018-09-23T23:43:41.212Z,17.50
2018-09-23T23:46:10.374Z,17.56
2018-09-23T23:48:39.541Z,17.64
2018-09-23T23:51:08.307Z,17.64
2018-09-23T23:53:37.031Z,17.28
2018-09-23T23:56:05.904Z,17.32
2018-09-23T23:58:35.106Z,17.32
